Flight Track Log - Related Links

Times and Time Zones

All times are in EDT time to prevent confusion due to time zone crossing. See the ASQ5407 flight status page for this flight to view local times or setup timezone preferences in your user account.

Time Position Orientation Groundspeed Altitude Reporting Facility
EDT Latitude Longitude Course Direction KTS MPH feet Rate Location/Type
Wed 11:09:14 PM 33.6500 -84.4833 257° West 179 206 2,700  Level Atlanta TRACON
Wed 11:10:20 PM 33.6333 -84.5667 257° West 264 304 5,400 2,714 Climbing Atlanta TRACON
Wed 11:11:20 PM 33.5667 -84.5833 192° South 289 333 8,400 2,255 Climbing Atlanta TRACON
Wed 11:12:57 PM 33.4931 -84.4647 127° Southeast 276 318 11,300 1,490 Climbing Atlanta Center
Wed 11:13:57 PM 33.5036 -84.3428 84° East 327 376 12,300 1,100 Climbing Atlanta Center
Wed 11:14:57 PM 33.5122 -84.2133 85° East 371 427 13,500 1,300 Climbing Atlanta Center
Wed 11:15:57 PM 33.5208 -84.0786 86° East 396 456 14,900 750 Climbing Atlanta Center
Wed 11:16:57 PM 33.5311 -83.9392 85° East 410 472 15,000 50 Climbing Atlanta Center
Wed 11:17:57 PM 33.5394 -83.8019 86° East 410 472 15,000  Level Atlanta Center
Wed 11:18:57 PM 33.5453 -83.6775 87° East 388 447 15,000  Level Atlanta Center
Wed 11:19:57 PM 33.5575 -83.5578 83° East 375 432 15,000  Level Atlanta Center
Wed 11:20:57 PM 33.5736 -83.4353 81° East 368 423 15,000 -150 Level Atlanta Center
Wed 11:21:57 PM 33.5750 -83.3133 89° East 368 423 14,700 -350 Descending Atlanta Center
Wed 11:22:57 PM 33.5658 -83.1986 95° East 368 423 14,300 -450 Descending Atlanta Center
Wed 11:23:57 PM 33.5567 -83.0717 95° East 373 429 13,800 -500 Descending Atlanta Center
Wed 11:24:57 PM 33.5453 -82.9472 96° East 378 435 13,300 -500 Descending Atlanta Center
Wed 11:25:57 PM 33.5356 -82.8225 95° East 378 435 12,800 -500 Descending Atlanta Center
Wed 11:26:57 PM 33.5261 -82.6981 95° East 378 435 12,300 -700 Descending Atlanta Center
Wed 11:27:57 PM 33.5183 -82.5761 94° East 363 418 11,400 -1,300 Descending Atlanta Center
Wed 11:28:57 PM 33.5025 -82.4717 100° East 339 390 9,700 -1,750 Descending Atlanta Center
Wed 11:29:57 PM 33.4950 -82.3722 95° East 320 368 7,900 -1,850 Descending Atlanta Center
Wed 11:30:57 PM 33.4872 -82.2778 96° East 296 341 6,000 -1,900 Descending Atlanta Center
Wed 11:31:57 PM 33.4797 -82.1858 96° East 285 328 4,100 -1,800 Descending Atlanta Center
Wed 11:32:57 PM 33.4719 -82.0939 96° East 274 315 2,400 -1,000 Descending Atlanta Center
Wed 11:33:57 PM 33.4667 -82.0192 95° East 255 293 2,100 -550 Descending Atlanta Center
Wed 11:34:57 PM 33.4347 -81.9828 136° Southeast 183 211 1,300 -800 Descending Atlanta Center

Login

Don't have an account? Register now (free) for customized features, flight alerts, and more!